Time,TemperatureF,DewpointF,PressureIn,WindDirection,WindDirectionDegrees,WindSpeedMPH,WindSpeedGustMPH,Humidity,HourlyPrecipIn,Conditions,Clouds,dailyrainin,SoftwareType,DateUTC
2013-04-21 00:02:00,65.1,23.1,29.94,NW,315,2.2,2.9,20,0.00,,---,0.00,VWS V14.01,2013-04-21 07:02:00,
2013-04-21 00:08:00,64.9,22.9,29.94,NNW,338,2.5,2.5,20,0.00,,---,0.00,VWS V14.01,2013-04-21 07:08:00,
2013-04-21 00:13:00,64.8,22.8,29.94,NW,315,3.1,3.1,20,0.00,,---,0.00,VWS V14.01,2013-04-21 07:13:00,
2013-04-21 00:18:00,64.8,22.8,29.94,NNW,338,2.0,2.2,20,0.00,,---,0.00,VWS V14.01,2013-04-21 07:18:00,
2013-04-21 00:23:00,64.8,22.8,29.94,NNW,338,3.1,3.1,20,0.00,,---,0.00,VWS V14.01,2013-04-21 07:23:00,
2013-04-21 00:28:00,64.9,22.9,29.94,NW,315,2.7,2.7,20,0.00,,---,0.00,VWS V14.01,2013-04-21 07:28:00,
2013-04-21 00:33:00,64.6,22.6,29.94,NW,315,2.9,2.9,20,0.00,,---,0.00,VWS V14.01,2013-04-21 07:33:00,
2013-04-21 00:38:00,64.2,23.5,29.94,NW,315,1.6,1.6,21,0.00,,---,0.00,VWS V14.01,2013-04-21 07:38:00,
2013-04-21 00:43:00,64.0,23.3,29.94,WNW,292,1.6,2.0,21,0.00,,---,0.00,VWS V14.01,2013-04-21 07:43:00,
2013-04-21 00:48:00,64.0,23.3,29.94,NNW,338,2.9,2.9,21,0.00,,---,0.00,VWS V14.01,2013-04-21 07:48:00,
2013-04-21 00:53:00,63.9,23.2,29.94,NW,315,2.0,2.0,21,0.00,,---,0.00,VWS V14.01,2013-04-21 07:53:00,
2013-04-21 00:58:00,63.5,22.9,29.94,NW,315,1.6,1.6,21,0.00,,---,0.00,VWS V14.01,2013-04-21 07:58:00,
2013-04-21 01:03:00,63.5,22.9,29.94,NNW,338,2.5,2.5,21,0.00,,---,0.00,VWS V14.01,2013-04-21 08:03:00,
2013-04-21 01:08:00,63.5,22.9,29.94,NNW,338,2.0,2.5,21,0.00,,---,0.00,VWS V14.01,2013-04-21 08:08:00,
2013-04-21 01:13:00,63.1,22.6,29.94,NNW,338,2.5,2.5,21,0.00,,---,0.00,VWS V14.01,2013-04-21 08:13:00,
2013-04-21 01:18:00,63.0,22.5,29.94,NW,315,2.7,2.7,21,0.00,,---,0.00,VWS V14.01,2013-04-21 08:18:00,
2013-04-21 01:23:00,62.6,22.1,29.94,NNW,338,1.6,2.0,21,0.00,,---,0.00,VWS V14.01,2013-04-21 08:23:00,
2013-04-21 01:29:00,62.2,21.9,29.94,NW,315,1.3,1.3,21,0.00,,---,0.00,VWS V14.01,2013-04-21 08:29:00,
2013-04-21 01:34:00,61.5,21.2,29.94,NW,315,0.0,0.0,21,0.00,,---,0.00,VWS V14.01,2013-04-21 08:34:00,
2013-04-21 01:39:00,60.8,20.6,29.94,North,0,0.0,0.0,21,0.00,,---,0.00,VWS V14.01,2013-04-21 08:39:00,
2013-04-21 01:44:00,60.1,21.1,29.94,NNW,338,2.0,2.0,22,0.00,,---,0.00,VWS V14.01,2013-04-21 08:44:00,
2013-04-21 01:49:00,60.4,21.4,29.94,NNW,338,2.7,2.7,22,0.00,,---,0.00,VWS V14.01,2013-04-21 08:49:00,
2013-04-21 01:54:00,61.0,20.8,29.94,NW,315,2.2,2.2,21,0.00,,---,0.00,VWS V14.01,2013-04-21 08:54:00,
2013-04-21 01:59:00,61.3,21.1,29.94,NW,315,3.1,3.1,21,0.00,,---,0.00,VWS V14.01,2013-04-21 08:59:00,
2013-04-21 02:04:00,61.3,21.1,29.94,NW,315,2.7,2.7,21,0.00,,---,0.00,VWS V14.01,2013-04-21 09:04:00,
2013-04-21 02:09:00,61.2,20.9,29.94,NW,315,2.7,2.7,21,0.00,,---,0.00,VWS V14.01,2013-04-21 09:09:00,
2013-04-21 02:14:00,61.7,21.4,29.94,NNW,338,3.4,3.4,21,0.00,,---,0.00,VWS V14.01,2013-04-21 09:14:00,
2013-04-21 02:19:00,61.9,21.5,29.94,NW,315,1.3,1.3,21,0.00,,---,0.00,VWS V14.01,2013-04-21 09:19:00,
2013-04-21 02:24:00,61.7,21.4,29.94,NW,315,2.9,2.9,21,0.00,,---,0.00,VWS V14.01,2013-04-21 09:24:00,
2013-04-21 02:29:00,61.9,21.5,29.94,NNW,338,2.0,2.7,21,0.00,,---,0.00,VWS V14.01,2013-04-21 09:29:00,
2013-04-21 02:34:00,62.1,21.7,29.94,NW,315,3.8,3.8,21,0.00,,---,0.00,VWS V14.01,2013-04-21 09:34:00,
2013-04-21 02:39:00,62.2,21.9,29.94,NW,315,2.5,2.5,21,0.00,,---,0.00,VWS V14.01,2013-04-21 09:39:00,
2013-04-21 02:44:00,62.2,21.9,29.94,NW,315,2.7,3.1,21,0.00,,---,0.00,VWS V14.01,2013-04-21 09:44:00,
2013-04-21 02:49:00,62.2,21.9,29.94,NNW,338,4.0,4.0,21,0.00,,---,0.00,VWS V14.01,2013-04-21 09:49:00,
2013-04-21 02:54:00,62.1,21.7,29.94,NW,315,3.4,3.4,21,0.00,,---,0.00,VWS V14.01,2013-04-21 09:54:00,
2013-04-21 02:59:00,62.2,21.9,29.94,WNW,292,2.7,2.7,21,0.00,,---,0.00,VWS V14.01,2013-04-21 09:59:00,
2013-04-21 03:04:00,61.9,21.5,29.94,WNW,292,1.1,1.1,21,0.00,,---,0.00,VWS V14.01,2013-04-21 10:04:00,
2013-04-21 03:09:00,61.0,20.8,29.94,SSW,202,1.3,1.3,21,0.00,,---,0.00,VWS V14.01,2013-04-21 10:09:00,
2013-04-21 03:14:00,60.3,21.3,29.97,SSW,202,0.9,0.9,22,0.00,,---,0.00,VWS V14.01,2013-04-21 10:14:00,
2013-04-21 03:20:00,59.5,20.7,29.97,South,180,0.0,0.0,22,0.00,,---,0.00,VWS V14.01,2013-04-21 10:20:00,
2013-04-21 03:25:00,59.0,20.2,29.97,NW,315,1.1,1.1,22,0.00,,---,0.00,VWS V14.01,2013-04-21 10:25:00,
2013-04-21 03:30:00,58.8,20.1,29.94,NW,315,0.0,0.0,22,0.00,,---,0.00,VWS V14.01,2013-04-21 10:30:00,
2013-04-21 03:35:00,58.5,19.8,29.94,NW,315,0.0,0.0,22,0.00,,---,0.00,VWS V14.01,2013-04-21 10:35:00,
2013-04-21 03:40:00,57.9,19.3,29.94,NW,315,1.1,2.5,22,0.00,,---,0.00,VWS V14.01,2013-04-21 10:40:00,
2013-04-21 03:45:00,57.6,19.0,29.97,NW,315,1.1,2.0,22,0.00,,---,0.00,VWS V14.01,2013-04-21 10:45:00,
2013-04-21 03:50:00,57.4,18.9,29.97,ENE,68,0.0,0.0,22,0.00,,---,0.00,VWS V14.01,2013-04-21 10:50:00,
2013-04-21 03:55:00,57.0,18.6,29.97,NW,315,1.6,1.6,22,0.00,,---,0.00,VWS V14.01,2013-04-21 10:55:00,
2013-04-21 04:00:00,56.8,18.4,29.97,NW,315,0.0,0.0,22,0.00,,---,0.00,VWS V14.01,2013-04-21 11:00:00,
2013-04-21 04:05:00,56.3,18.0,29.97,East,90,0.0,0.0,22,0.00,,---,0.00,VWS V14.01,2013-04-21 11:05:00,
2013-04-21 04:10:00,55.9,17.7,29.97,North,0,0.0,0.0,22,0.00,,---,0.00,VWS V14.01,2013-04-21 11:10:00,
2013-04-21 04:15:00,55.4,17.2,29.97,North,0,0.0,0.0,22,0.00,,---,0.00,VWS V14.01,2013-04-21 11:15:00,
2013-04-21 04:20:00,55.2,20.0,29.97,NNW,338,1.6,1.6,25,0.00,,---,0.00,VWS V14.01,2013-04-21 11:20:00,
2013-04-21 04:25:00,55.2,20.0,29.97,NNW,338,1.1,1.1,25,0.00,,---,0.00,VWS V14.01,2013-04-21 11:25:00,
2013-04-21 04:30:00,55.2,20.0,29.97,NW,315,1.3,1.3,25,0.00,,---,0.00,VWS V14.01,2013-04-21 11:30:00,
2013-04-21 04:36:00,55.0,19.9,29.97,NNW,338,2.2,2.2,25,0.00,,---,0.00,VWS V14.01,2013-04-21 11:36:00,
2013-04-21 04:41:00,55.0,20.8,29.97,NNW,338,2.0,2.0,26,0.00,,---,0.00,VWS V14.01,2013-04-21 11:41:00,
2013-04-21 04:46:00,55.2,21.0,29.97,NNW,338,2.2,2.2,26,0.00,,---,0.00,VWS V14.01,2013-04-21 11:46:00,
2013-04-21 04:51:00,55.8,20.5,29.97,NNW,338,2.2,2.2,25,0.00,,---,0.00,VWS V14.01,2013-04-21 11:51:00,
2013-04-21 04:56:00,56.1,20.8,29.97,NNW,338,1.6,1.6,25,0.00,,---,0.00,VWS V14.01,2013-04-21 11:56:00,
2013-04-21 05:01:00,56.5,21.1,29.97,NW,315,2.2,2.2,25,0.00,,---,0.00,VWS V14.01,2013-04-21 12:01:00,
2013-04-21 05:06:00,56.7,21.3,29.97,NW,315,2.0,2.0,25,0.00,,---,0.00,VWS V14.01,2013-04-21 12:06:00,
2013-04-21 05:11:00,56.5,21.1,29.97,NW,315,1.3,1.3,25,0.00,,---,0.00,VWS V14.01,2013-04-21 12:11:00,
2013-04-21 05:16:00,55.9,20.6,29.97,SSE,158,2.2,2.2,25,0.00,,---,0.00,VWS V14.01,2013-04-21 12:16:00,
2013-04-21 05:21:00,55.4,20.2,29.97,NW,315,1.3,2.0,25,0.00,,---,0.00,VWS V14.01,2013-04-21 12:21:00,
2013-04-21 05:26:00,55.0,20.8,29.97,South,180,0.0,0.0,26,0.00,,---,0.00,VWS V14.01,2013-04-21 12:26:00,
2013-04-21 05:31:00,54.9,20.6,29.97,WNW,292,0.0,0.0,26,0.00,,---,0.00,VWS V14.01,2013-04-21 12:31:00,
2013-04-21 05:36:00,54.7,20.5,29.97,NW,315,2.5,2.5,26,0.00,,---,0.00,VWS V14.01,2013-04-21 12:36:00,
2013-04-21 05:41:00,54.5,20.3,29.97,SW,225,0.0,0.0,26,0.00,,---,0.00,VWS V14.01,2013-04-21 12:41:00,
2013-04-21 05:46:00,54.1,20.9,29.97,SW,225,0.0,0.0,27,0.00,,---,0.00,VWS V14.01,2013-04-21 12:46:00,
2013-04-21 05:51:00,54.0,19.9,29.97,NNW,338,0.0,0.9,26,0.00,,---,0.00,VWS V14.01,2013-04-21 12:51:00,
2013-04-21 05:56:00,54.0,19.9,29.97,NNW,338,0.0,1.3,26,0.00,,---,0.00,VWS V14.01,2013-04-21 12:56:00,
2013-04-21 06:01:00,54.0,19.9,29.97,NW,315,1.3,1.6,26,0.00,,---,0.00,VWS V14.01,2013-04-21 13:01:00,
2013-04-21 06:07:00,54.0,20.8,29.97,NW,315,1.3,1.3,27,0.00,,---,0.00,VWS V14.01,2013-04-21 13:07:00,
2013-04-21 06:12:00,53.8,19.7,29.97,NW,315,1.6,1.6,26,0.00,,---,0.00,VWS V14.01,2013-04-21 13:12:00,
2013-04-21 06:17:00,53.8,20.6,29.97,NW,315,1.3,1.3,27,0.00,,---,0.00,VWS V14.01,2013-04-21 13:17:00,
2013-04-21 06:22:00,54.1,20.9,29.97,West,270,0.0,0.9,27,0.00,,---,0.00,VWS V14.01,2013-04-21 13:22:00,
2013-04-21 06:27:00,54.5,21.2,30.00,NNW,338,0.0,0.0,27,0.00,,---,0.00,VWS V14.01,2013-04-21 13:27:00,
2013-04-21 06:32:00,55.0,21.7,30.00,NW,315,0.0,0.0,27,0.00,,---,0.00,VWS V14.01,2013-04-21 13:32:00,
2013-04-21 06:37:00,55.4,22.0,30.00,North,0,0.0,0.0,27,0.00,,---,0.00,VWS V14.01,2013-04-21 13:37:00,
2013-04-21 06:42:00,55.9,22.5,30.00,NNW,338,0.0,0.0,27,0.00,,---,0.00,VWS V14.01,2013-04-21 13:42:00,
2013-04-21 06:47:00,56.5,22.9,30.00,North,0,1.1,1.1,27,0.00,,---,0.00,VWS V14.01,2013-04-21 13:47:00,
2013-04-21 06:52:00,57.2,24.4,30.00,North,0,0.0,0.0,28,0.00,,---,0.00,VWS V14.01,2013-04-21 13:52:00,
2013-04-21 06:57:00,57.9,25.0,30.00,North,0,0.0,1.1,28,0.00,,---,0.00,VWS V14.01,2013-04-21 13:57:00,
2013-04-21 07:02:00,58.5,24.6,30.00,NNE,22,0.0,0.0,27,0.00,,---,0.00,VWS V14.01,2013-04-21 14:02:00,
2013-04-21 07:07:00,59.2,25.2,30.00,NNE,22,0.0,0.0,27,0.00,,---,0.00,VWS V14.01,2013-04-21 14:07:00,
2013-04-21 07:12:00,59.7,25.7,30.00,North,0,0.0,0.0,27,0.00,,---,0.00,VWS V14.01,2013-04-21 14:12:00,
2013-04-21 07:17:00,60.4,26.3,30.00,West,270,0.0,0.0,27,0.00,,---,0.00,VWS V14.01,2013-04-21 14:17:00,
2013-04-21 07:22:00,61.0,25.9,30.00,WSW,248,2.0,2.0,26,0.00,,---,0.00,VWS V14.01,2013-04-21 14:22:00,
2013-04-21 07:27:00,62.1,26.8,30.00,SW,225,2.9,2.9,26,0.00,,---,0.00,VWS V14.01,2013-04-21 14:27:00,
2013-04-21 07:33:00,62.8,27.4,30.00,SSW,202,0.0,0.0,26,0.00,,---,0.00,VWS V14.01,2013-04-21 14:33:00,
2013-04-21 07:38:00,63.7,28.2,30.00,SSE,158,0.0,0.9,26,0.00,,---,0.00,VWS V14.01,2013-04-21 14:38:00,
2013-04-21 07:43:00,64.2,28.6,30.00,SE,135,0.0,0.0,26,0.00,,---,0.00,VWS V14.01,2013-04-21 14:43:00,
2013-04-21 07:48:00,65.5,28.8,30.00,ESE,112,2.2,2.2,25,0.00,,---,0.00,VWS V14.01,2013-04-21 14:48:00,
2013-04-21 07:53:00,66.0,29.2,30.00,SE,135,1.3,1.3,25,0.00,,---,0.00,VWS V14.01,2013-04-21 14:53:00,
2013-04-21 07:58:00,66.7,28.8,30.00,SE,135,2.0,2.0,24,0.00,,---,0.00,VWS V14.01,2013-04-21 14:58:00,
2013-04-21 08:03:00,69.8,31.4,30.00,SE,135,1.3,1.3,24,0.00,,---,0.00,VWS V14.01,2013-04-21 15:03:00,
2013-04-21 08:08:00,72.7,32.8,30.00,SE,135,1.1,1.1,23,0.00,,---,0.00,VWS V14.01,2013-04-21 15:08:00,
2013-04-21 08:13:00,73.8,33.7,30.00,SE,135,1.3,2.2,23,0.00,,---,0.00,VWS V14.01,2013-04-21 15:13:00,
2013-04-21 08:18:00,73.9,32.7,30.00,SE,135,0.9,1.3,22,0.00,,---,0.00,VWS V14.01,2013-04-21 15:18:00,
2013-04-21 08:23:00,74.8,33.5,30.00,South,180,2.0,3.1,22,0.00,,---,0.00,VWS V14.01,2013-04-21 15:23:00,
2013-04-21 08:28:00,73.9,32.7,30.00,SE,135,1.1,1.1,22,0.00,,---,0.00,VWS V14.01,2013-04-21 15:28:00,
2013-04-21 08:33:00,74.1,32.9,30.00,ESE,112,2.9,2.9,22,0.00,,---,0.00,VWS V14.01,2013-04-21 15:33:00,
2013-04-21 08:38:00,73.8,32.6,30.00,SSE,158,0.9,0.9,22,0.00,,---,0.00,VWS V14.01,2013-04-21 15:38:00,
2013-04-21 08:43:00,73.6,32.4,30.03,WSW,248,2.9,2.9,22,0.00,,---,0.00,VWS V14.01,2013-04-21 15:43:00,
2013-04-21 08:48:00,73.6,32.4,30.03,SSE,158,2.2,2.2,22,0.00,,---,0.00,VWS V14.01,2013-04-21 15:48:00,
2013-04-21 08:53:00,74.1,32.9,30.03,SSW,202,1.6,4.3,22,0.00,,---,0.00,VWS V14.01,2013-04-21 15:53:00,
2013-04-21 08:58:00,74.5,33.2,30.03,South,180,1.3,2.9,22,0.00,,---,0.00,VWS V14.01,2013-04-21 15:58:00,
2013-04-21 09:03:00,75.0,32.5,30.03,SE,135,2.0,3.6,21,0.00,,---,0.00,VWS V14.01,2013-04-21 16:03:00,
2013-04-21 09:08:00,75.7,33.1,30.03,South,180,2.7,2.7,21,0.00,,---,0.00,VWS V14.01,2013-04-21 16:08:00,
2013-04-21 09:14:00,76.3,33.5,30.03,SE,135,4.3,4.3,21,0.00,,---,0.00,VWS V14.01,2013-04-21 16:14:00,
2013-04-21 09:19:00,76.8,34.0,30.03,SSW,202,3.8,3.8,21,0.00,,---,0.00,VWS V14.01,2013-04-21 16:19:00,
2013-04-21 09:24:00,77.2,33.0,30.03,South,180,1.6,1.6,20,0.04,,---,0.04,VWS V14.01,2013-04-21 16:24:00,
2013-04-21 09:29:00,77.7,33.5,30.03,SSE,158,2.5,2.5,20,0.04,,---,0.04,VWS V14.01,2013-04-21 16:29:00,
2013-04-21 09:34:00,77.9,33.6,30.03,South,180,3.1,3.1,20,0.04,,---,0.04,VWS V14.01,2013-04-21 16:34:00,
2013-04-21 09:39:00,78.4,34.1,30.03,SE,135,3.1,5.6,20,0.08,,---,0.08,VWS V14.01,2013-04-21 16:39:00,
2013-04-21 09:44:00,78.8,34.4,30.03,WSW,248,3.6,4.3,20,0.08,,---,0.08,VWS V14.01,2013-04-21 16:44:00,
2013-04-21 09:49:00,79.3,34.8,30.03,SE,135,2.0,4.3,20,0.08,,---,0.08,VWS V14.01,2013-04-21 16:49:00,
2013-04-21 09:54:00,80.1,35.4,30.03,SE,135,2.7,2.7,20,0.08,,---,0.08,VWS V14.01,2013-04-21 16:54:00,
2013-04-21 09:59:00,80.4,35.7,30.03,SE,135,1.3,3.4,20,0.08,,---,0.08,VWS V14.01,2013-04-21 16:59:00,
2013-04-21 10:04:00,80.8,34.7,30.03,South,180,3.1,3.1,19,0.08,,---,0.08,VWS V14.01,2013-04-21 17:04:00,
2013-04-21 10:09:00,81.1,32.2,30.03,SSW,202,4.7,6.0,17,0.08,,---,0.08,VWS V14.01,2013-04-21 17:09:00,
2013-04-21 10:14:00,81.5,32.5,30.03,South,180,3.4,3.4,17,0.08,,---,0.08,VWS V14.01,2013-04-21 17:14:00,
2013-04-21 10:20:00,81.7,32.7,30.03,South,180,6.5,6.5,17,0.08,,---,0.08,VWS V14.01,2013-04-21 17:20:00,
2013-04-21 10:25:00,82.4,31.8,30.03,ESE,112,2.9,2.9,16,0.04,,---,0.08,VWS V14.01,2013-04-21 17:25:00,
2013-04-21 10:30:00,82.9,32.2,30.03,WSW,248,1.6,1.6,16,0.04,,---,0.08,VWS V14.01,2013-04-21 17:30:00,
2013-04-21 10:35:00,83.1,32.3,30.03,SSE,158,3.1,3.1,16,0.04,,---,0.08,VWS V14.01,2013-04-21 17:35:00,
2013-04-21 10:40:00,83.3,32.5,30.03,SE,135,4.3,4.3,16,0.00,,---,0.08,VWS V14.01,2013-04-21 17:40:00,
2013-04-21 10:45:00,83.5,32.6,30.03,SSE,158,2.0,2.0,16,0.00,,---,0.08,VWS V14.01,2013-04-21 17:45:00,
2013-04-21 10:50:00,83.8,32.9,30.03,SSW,202,2.5,2.5,16,0.00,,---,0.08,VWS V14.01,2013-04-21 17:50:00,
2013-04-21 10:55:00,83.8,32.9,30.03,SW,225,2.2,2.2,16,0.00,,---,0.08,VWS V14.01,2013-04-21 17:55:00,
2013-04-21 11:00:00,83.8,32.9,30.00,West,270,3.4,4.0,16,0.00,,---,0.08,VWS V14.01,2013-04-21 18:00:00,
2013-04-21 11:05:00,83.8,32.9,30.00,SW,225,3.1,3.1,16,0.00,,---,0.08,VWS V14.01,2013-04-21 18:05:00,
2013-04-21 11:10:00,83.8,32.9,30.00,SW,225,1.3,1.3,16,0.00,,---,0.08,VWS V14.01,2013-04-21 18:10:00,
2013-04-21 11:15:00,84.0,33.0,30.00,SW,225,2.7,3.6,16,0.00,,---,0.08,VWS V14.01,2013-04-21 18:15:00,
2013-04-21 11:20:00,84.4,33.3,30.00,West,270,2.7,2.7,16,0.00,,---,0.08,VWS V14.01,2013-04-21 18:20:00,
2013-04-21 11:25:00,84.7,33.6,30.00,West,270,1.6,1.6,16,0.00,,---,0.08,VWS V14.01,2013-04-21 18:25:00,
2013-04-21 11:30:00,84.9,33.8,30.00,SSW,202,0.9,1.3,16,0.00,,---,0.08,VWS V14.01,2013-04-21 18:30:00,
2013-04-21 11:36:00,84.6,33.5,30.00,SW,225,3.4,3.4,16,0.00,,---,0.08,VWS V14.01,2013-04-21 18:36:00,
2013-04-21 11:41:00,84.2,33.2,30.00,NW,315,1.6,1.6,16,0.00,,---,0.08,VWS V14.01,2013-04-21 18:41:00,
2013-04-21 11:46:00,84.4,33.3,30.00,SW,225,5.4,5.4,16,0.00,,---,0.08,VWS V14.01,2013-04-21 18:46:00,
2013-04-21 11:51:00,85.1,33.9,30.00,SSW,202,2.7,2.7,16,0.00,,---,0.08,VWS V14.01,2013-04-21 18:51:00,
2013-04-21 11:56:00,85.5,34.2,30.00,WSW,248,2.9,3.8,16,0.00,,---,0.08,VWS V14.01,2013-04-21 18:56:00,
2013-04-21 12:01:00,85.5,34.2,30.00,ESE,112,2.0,3.8,16,0.00,,---,0.08,VWS V14.01,2013-04-21 19:01:00,
2013-04-21 12:06:00,86.0,34.6,30.00,South,180,2.0,2.0,16,0.00,,---,0.08,VWS V14.01,2013-04-21 19:06:00,
2013-04-21 12:11:00,86.5,35.1,30.00,ESE,112,3.6,3.6,16,0.00,,---,0.08,VWS V14.01,2013-04-21 19:11:00,
2013-04-21 12:16:00,86.5,35.1,29.97,WNW,292,1.3,1.3,16,0.00,,---,0.08,VWS V14.01,2013-04-21 19:16:00,
2013-04-21 12:21:00,86.2,34.8,29.97,North,0,2.9,2.9,16,0.00,,---,0.08,VWS V14.01,2013-04-21 19:21:00,
2013-04-21 12:26:00,86.2,34.8,29.97,WSW,248,1.1,1.1,16,0.00,,---,0.08,VWS V14.01,2013-04-21 19:26:00,
2013-04-21 12:31:00,86.5,35.1,29.97,SW,225,6.0,6.0,16,0.00,,---,0.08,VWS V14.01,2013-04-21 19:31:00,
2013-04-21 12:36:00,86.7,35.2,29.97,South,180,1.6,1.6,16,0.00,,---,0.08,VWS V14.01,2013-04-21 19:36:00,
2013-04-21 12:42:00,87.1,35.5,29.97,WSW,248,3.4,3.4,16,0.00,,---,0.08,VWS V14.01,2013-04-21 19:42:00,
2013-04-21 12:47:00,87.1,35.5,29.97,SW,225,0.0,0.0,16,0.00,,---,0.08,VWS V14.01,2013-04-21 19:47:00,
2013-04-21 12:52:00,87.1,35.5,29.97,WSW,248,5.8,5.8,16,0.00,,---,0.08,VWS V14.01,2013-04-21 19:52:00,
2013-04-21 12:57:00,87.1,35.5,29.97,NE,45,2.9,2.9,16,0.00,,---,0.08,VWS V14.01,2013-04-21 19:57:00,
2013-04-21 13:02:00,87.4,35.8,29.97,South,180,2.9,2.9,16,0.00,,---,0.08,VWS V14.01,2013-04-21 20:02:00,
2013-04-21 13:07:00,87.3,35.6,29.97,North,0,3.6,3.6,16,0.00,,---,0.08,VWS V14.01,2013-04-21 20:07:00,
2013-04-21 13:12:00,87.3,35.6,29.97,WNW,292,2.2,2.2,16,0.00,,---,0.08,VWS V14.01,2013-04-21 20:12:00,
2013-04-21 13:17:00,87.4,35.8,29.97,SW,225,4.9,4.9,16,0.00,,---,0.08,VWS V14.01,2013-04-21 20:17:00,
2013-04-21 13:22:00,87.4,35.8,29.97,WSW,248,7.6,7.6,16,0.00,,---,0.08,VWS V14.01,2013-04-21 20:22:00,
2013-04-21 13:27:00,87.4,35.8,29.97,SSE,158,2.5,2.5,16,0.00,,---,0.08,VWS V14.01,2013-04-21 20:27:00,
2013-04-21 13:32:00,87.1,35.5,29.97,NNW,338,5.6,5.6,16,0.00,,---,0.08,VWS V14.01,2013-04-21 20:32:00,
2013-04-21 13:37:00,87.1,35.5,29.97,SSE,158,2.7,4.3,16,0.00,,---,0.08,VWS V14.01,2013-04-21 20:37:00,
2013-04-21 13:42:00,87.6,35.9,29.94,South,180,3.4,3.4,16,0.00,,---,0.08,VWS V14.01,2013-04-21 20:42:00,
2013-04-21 13:47:00,87.6,35.9,29.94,SE,135,3.6,4.9,16,0.00,,---,0.08,VWS V14.01,2013-04-21 20:47:00,
2013-04-21 13:52:00,87.8,34.5,29.94,SW,225,3.8,3.8,15,0.00,,---,0.08,VWS V14.01,2013-04-21 20:52:00,
2013-04-21 13:57:00,88.0,34.6,29.94,SW,225,2.2,4.7,15,0.00,,---,0.08,VWS V14.01,2013-04-21 20:57:00,
2013-04-21 14:02:00,88.2,34.7,29.94,SW,225,0.9,0.9,15,0.00,,---,0.08,VWS V14.01,2013-04-21 21:02:00,
2013-04-21 14:07:00,88.0,34.6,29.94,SW,225,0.9,3.6,15,0.00,,---,0.08,VWS V14.01,2013-04-21 21:07:00,
2013-04-21 14:13:00,87.8,34.5,29.94,WSW,248,4.0,5.4,15,0.00,,---,0.08,VWS V14.01,2013-04-21 21:13:00,
2013-04-21 14:18:00,87.8,34.5,29.94,SW,225,5.4,5.4,15,0.00,,---,0.08,VWS V14.01,2013-04-21 21:18:00,
2013-04-21 14:23:00,87.8,34.5,29.94,South,180,2.9,2.9,15,0.00,,---,0.08,VWS V14.01,2013-04-21 21:23:00,
2013-04-21 14:28:00,88.2,34.7,29.94,SW,225,1.3,2.5,15,0.00,,---,0.08,VWS V14.01,2013-04-21 21:28:00,
2013-04-21 14:33:00,88.5,35.0,29.94,SW,225,8.7,8.7,15,0.00,,---,0.08,VWS V14.01,2013-04-21 21:33:00,
2013-04-21 14:38:00,88.2,31.2,29.94,WSW,248,2.5,2.5,13,0.00,,---,0.08,VWS V14.01,2013-04-21 21:38:00,
2013-04-21 14:43:00,87.6,30.8,29.94,SW,225,6.5,6.5,13,0.00,,---,0.08,VWS V14.01,2013-04-21 21:43:00,
2013-04-21 14:48:00,87.6,30.8,29.94,WSW,248,3.1,3.6,13,0.00,,---,0.08,VWS V14.01,2013-04-21 21:48:00,
2013-04-21 14:53:00,88.2,31.2,29.94,SSW,202,2.2,2.2,13,0.00,,---,0.08,VWS V14.01,2013-04-21 21:53:00,
2013-04-21 14:58:00,88.5,31.5,29.91,SW,225,4.0,6.3,13,0.00,,---,0.08,VWS V14.01,2013-04-21 21:58:00,
2013-04-21 15:03:00,88.7,31.6,29.91,SSE,158,3.4,4.7,13,0.00,,---,0.08,VWS V14.01,2013-04-21 22:03:00,
2013-04-21 15:08:00,89.1,35.5,29.91,SW,225,1.6,3.4,15,0.00,,---,0.08,VWS V14.01,2013-04-21 22:08:00,
2013-04-21 15:13:00,89.2,35.6,29.94,SW,225,1.3,2.0,15,0.00,,---,0.08,VWS V14.01,2013-04-21 22:13:00,
2013-04-21 15:18:00,89.4,32.2,29.94,NW,315,3.6,4.3,13,0.00,,---,0.08,VWS V14.01,2013-04-21 22:18:00,
2013-04-21 15:23:00,88.9,35.3,29.94,SSW,202,3.1,3.1,15,0.08,,---,0.16,VWS V14.01,2013-04-21 22:23:00,
2013-04-21 15:29:00,89.1,31.9,29.94,South,180,1.6,1.6,13,0.08,,---,0.16,VWS V14.01,2013-04-21 22:29:00,
2013-04-21 15:34:00,88.7,31.6,29.94,WSW,248,2.2,2.9,13,0.08,,---,0.16,VWS V14.01,2013-04-21 22:34:00,
2013-04-21 15:39:00,89.2,35.6,29.94,SW,225,5.6,5.6,15,0.08,,---,0.16,VWS V14.01,2013-04-21 22:39:00,
2013-04-21 15:44:00,89.6,35.9,29.91,WSW,248,3.8,3.8,15,0.08,,---,0.16,VWS V14.01,2013-04-21 22:44:00,
2013-04-21 15:49:00,89.6,35.9,29.91,NW,315,4.3,4.3,15,0.08,,---,0.16,VWS V14.01,2013-04-21 22:49:00,
2013-04-21 15:54:00,89.2,35.6,29.91,WNW,292,3.1,3.8,15,0.08,,---,0.16,VWS V14.01,2013-04-21 22:54:00,
2013-04-21 15:59:00,89.6,35.9,29.91,SW,225,3.6,3.6,15,0.08,,---,0.16,VWS V14.01,2013-04-21 22:59:00,
2013-04-21 16:04:00,89.6,35.9,29.91,WSW,248,2.9,2.9,15,0.08,,---,0.16,VWS V14.01,2013-04-21 23:04:00,
2013-04-21 16:09:00,89.1,35.5,29.91,North,0,2.5,2.7,15,0.08,,---,0.16,VWS V14.01,2013-04-21 23:09:00,
2013-04-21 16:14:00,89.6,35.9,29.91,SE,135,2.5,2.5,15,0.08,,---,0.16,VWS V14.01,2013-04-21 23:14:00,
2013-04-21 16:19:00,89.6,35.9,29.91,SW,225,4.3,4.3,15,0.08,,---,0.16,VWS V14.01,2013-04-21 23:19:00,
2013-04-21 16:24:00,89.8,36.0,29.91,WSW,248,4.0,4.0,15,0.00,,---,0.16,VWS V14.01,2013-04-21 23:24:00,
2013-04-21 16:29:00,89.4,32.2,29.91,NNW,338,2.0,2.0,13,0.00,,---,0.16,VWS V14.01,2013-04-21 23:29:00,
2013-04-21 16:34:00,89.6,35.9,29.91,NNW,338,1.6,1.6,15,0.00,,---,0.16,VWS V14.01,2013-04-21 23:34:00,
2013-04-21 16:39:00,90.1,36.3,29.91,West,270,1.1,1.1,15,0.00,,---,0.16,VWS V14.01,2013-04-21 23:39:00,
2013-04-21 16:45:00,91.0,37.0,29.91,NE,45,1.6,2.7,15,0.00,,---,0.16,VWS V14.01,2013-04-21 23:45:00,
2013-04-21 16:50:00,90.1,30.7,29.91,SE,135,2.7,5.4,12,0.00,,---,0.16,VWS V14.01,2013-04-21 23:50:00,
2013-04-21 16:55:00,90.9,36.9,29.91,WSW,248,1.3,1.3,15,0.00,,---,0.16,VWS V14.01,2013-04-21 23:55:00,
2013-04-21 17:00:00,91.4,35.6,29.91,SSE,158,1.1,2.5,14,0.00,,---,0.16,VWS V14.01,2013-04-22 00:00:00,
2013-04-21 17:05:00,91.8,35.8,29.91,SW,225,0.9,0.9,14,0.00,,---,0.16,VWS V14.01,2013-04-22 00:05:00,
2013-04-21 17:10:00,92.1,36.1,29.91,SW,225,2.0,2.0,14,0.00,,---,0.16,VWS V14.01,2013-04-22 00:10:00,
2013-04-21 17:15:00,92.8,36.7,29.91,WNW,292,4.7,4.7,14,0.00,,---,0.16,VWS V14.01,2013-04-22 00:15:00,
2013-04-21 17:20:00,91.2,31.6,29.91,WSW,248,3.8,7.4,12,0.00,,---,0.16,VWS V14.01,2013-04-22 00:20:00,
2013-04-21 17:25:00,91.2,37.2,29.91,SW,225,2.0,3.8,15,0.00,,---,0.16,VWS V14.01,2013-04-22 00:25:00,
2013-04-21 17:30:00,91.2,31.6,29.91,NW,315,2.5,3.1,12,0.00,,---,0.16,VWS V14.01,2013-04-22 00:30:00,
2013-04-21 17:35:00,90.0,30.6,29.91,NW,315,1.1,5.6,12,0.00,,---,0.16,VWS V14.01,2013-04-22 00:35:00,
2013-04-21 17:40:00,90.0,30.6,29.91,SW,225,0.0,0.0,12,0.00,,---,0.16,VWS V14.01,2013-04-22 00:40:00,
2013-04-21 17:45:00,89.2,32.0,29.91,NW,315,3.1,3.1,13,0.00,,---,0.16,VWS V14.01,2013-04-22 00:45:00,
2013-04-21 17:50:00,88.2,31.2,29.91,WNW,292,4.3,4.3,13,0.00,,---,0.16,VWS V14.01,2013-04-22 00:50:00,
2013-04-21 17:56:00,87.1,30.3,29.91,NNW,338,3.6,3.6,13,0.00,,---,0.16,VWS V14.01,2013-04-22 00:56:00,
2013-04-21 18:01:00,86.7,30.0,29.91,WNW,292,0.0,1.6,13,0.00,,---,0.16,VWS V14.01,2013-04-22 01:01:00,
2013-04-21 18:06:00,86.7,30.0,29.91,NW,315,3.4,3.4,13,0.00,,---,0.16,VWS V14.01,2013-04-22 01:06:00,
2013-04-21 18:11:00,86.9,30.2,29.91,NNW,338,0.0,0.0,13,0.00,,---,0.16,VWS V14.01,2013-04-22 01:11:00,
2013-04-21 18:16:00,86.7,30.0,29.91,North,0,0.0,2.0,13,0.00,,---,0.16,VWS V14.01,2013-04-22 01:16:00,
2013-04-21 18:21:00,86.0,29.5,29.91,WNW,292,3.1,3.1,13,0.00,,---,0.16,VWS V14.01,2013-04-22 01:21:00,
2013-04-21 18:26:00,85.1,28.8,29.91,NW,315,0.9,2.7,13,0.00,,---,0.16,VWS V14.01,2013-04-22 01:26:00,
2013-04-21 18:31:00,83.8,29.6,29.91,NNW,338,4.3,4.3,14,0.00,,---,0.16,VWS V14.01,2013-04-22 01:31:00,
2013-04-21 18:36:00,83.1,29.0,29.91,NNW,338,3.6,5.8,14,0.00,,---,0.16,VWS V14.01,2013-04-22 01:36:00,
2013-04-21 18:41:00,82.6,28.6,29.91,NW,315,2.2,2.2,14,0.00,,---,0.16,VWS V14.01,2013-04-22 01:41:00,
2013-04-21 18:46:00,82.0,28.2,29.91,WNW,292,2.2,2.5,14,0.00,,---,0.16,VWS V14.01,2013-04-22 01:46:00,
2013-04-21 18:51:00,81.5,27.8,29.91,NW,315,2.7,2.9,14,0.00,,---,0.16,VWS V14.01,2013-04-22 01:51:00,
2013-04-21 18:56:00,81.0,27.3,29.91,NW,315,2.0,2.0,14,0.00,,---,0.16,VWS V14.01,2013-04-22 01:56:00,
2013-04-21 19:01:00,80.2,28.4,29.91,NW,315,2.0,2.0,15,0.00,,---,0.16,VWS V14.01,2013-04-22 02:01:00,
2013-04-21 19:07:00,79.7,28.0,29.91,NNW,338,1.6,2.2,15,0.00,,---,0.16,VWS V14.01,2013-04-22 02:07:00,
2013-04-21 19:12:00,79.2,27.6,29.91,NNW,338,1.6,2.7,15,0.00,,---,0.16,VWS V14.01,2013-04-22 02:12:00,
2013-04-21 19:17:00,78.4,27.0,29.91,NNW,338,2.0,2.0,15,0.00,,---,0.16,VWS V14.01,2013-04-22 02:17:00,
2013-04-21 19:22:00,77.9,26.6,29.91,NNW,338,1.6,2.5,15,0.00,,---,0.16,VWS V14.01,2013-04-22 02:22:00,
2013-04-21 19:27:00,77.4,26.1,29.91,NNW,338,2.9,2.9,15,0.00,,---,0.16,VWS V14.01,2013-04-22 02:27:00,
2013-04-21 19:32:00,77.0,25.9,29.91,North,0,1.6,2.5,15,0.00,,---,0.16,VWS V14.01,2013-04-22 02:32:00,
2013-04-21 19:37:00,76.5,25.4,29.91,NW,315,2.2,2.5,15,0.00,,---,0.16,VWS V14.01,2013-04-22 02:37:00,
2013-04-21 19:42:00,76.3,25.3,29.91,NNW,338,3.1,3.1,15,0.00,,---,0.16,VWS V14.01,2013-04-22 02:42:00,
2013-04-21 19:47:00,75.6,24.7,29.91,NW,315,3.1,3.1,15,0.00,,---,0.16,VWS V14.01,2013-04-22 02:47:00,
2013-04-21 19:52:00,75.2,24.4,29.91,NNW,338,1.3,1.3,15,0.00,,---,0.16,VWS V14.01,2013-04-22 02:52:00,
2013-04-21 19:57:00,75.2,24.4,29.91,ENE,68,2.0,2.0,15,0.00,,---,0.16,VWS V14.01,2013-04-22 02:57:00,
2013-04-21 20:02:00,74.3,25.2,29.91,SE,135,4.7,4.7,16,0.00,,---,0.16,VWS V14.01,2013-04-22 03:02:00,
2013-04-21 20:07:00,73.8,24.8,29.91,NNE,22,2.0,2.0,16,0.00,,---,0.16,VWS V14.01,2013-04-22 03:07:00,
2013-04-21 20:12:00,73.6,24.7,29.91,NE,45,1.1,2.2,16,0.00,,---,0.16,VWS V14.01,2013-04-22 03:12:00,
2013-04-21 20:17:00,73.8,24.8,29.91,NE,45,2.5,2.5,16,0.00,,---,0.16,VWS V14.01,2013-04-22 03:17:00,
2013-04-21 20:23:00,73.8,24.8,29.91,North,0,4.0,4.0,16,0.00,,---,0.16,VWS V14.01,2013-04-22 03:23:00,
2013-04-21 20:28:00,73.8,24.8,29.91,North,0,4.3,4.3,16,0.00,,---,0.16,VWS V14.01,2013-04-22 03:28:00,
2013-04-21 20:33:00,73.8,24.8,29.91,NNW,338,3.8,3.8,16,0.00,,---,0.16,VWS V14.01,2013-04-22 03:33:00,
2013-04-21 20:38:00,73.6,24.7,29.91,NW,315,3.8,3.8,16,0.00,,---,0.16,VWS V14.01,2013-04-22 03:38:00,
2013-04-21 20:43:00,73.6,24.7,29.94,NNE,22,2.2,2.2,16,0.00,,---,0.16,VWS V14.01,2013-04-22 03:43:00,
2013-04-21 20:48:00,73.4,24.5,29.94,North,0,2.0,2.0,16,0.00,,---,0.16,VWS V14.01,2013-04-22 03:48:00,
2013-04-21 20:53:00,73.2,24.4,29.94,NW,315,2.5,2.5,16,0.00,,---,0.16,VWS V14.01,2013-04-22 03:53:00,
2013-04-21 20:58:00,72.7,23.9,29.94,NNW,338,1.6,3.6,16,0.00,,---,0.16,VWS V14.01,2013-04-22 03:58:00,
2013-04-21 21:01:00,72.5,23.8,29.94,NW,315,2.2,2.2,16,0.00,,---,0.16,VWS V14.01,2013-04-22 04:01:00,
2013-04-21 21:02:00,72.3,23.6,29.94,NNW,338,2.5,2.5,16,0.00,,---,0.16,VWS V14.01,2013-04-22 04:02:00,
2013-04-21 21:07:00,71.8,23.2,29.94,NW,315,2.2,2.2,16,0.00,,---,0.16,VWS V14.01,2013-04-22 04:07:00,
2013-04-21 21:12:00,71.4,24.4,29.94,NNW,338,2.7,2.7,17,0.00,,---,0.16,VWS V14.01,2013-04-22 04:12:00,
2013-04-21 21:17:00,71.4,24.4,29.94,NNW,338,2.5,2.9,17,0.00,,---,0.16,VWS V14.01,2013-04-22 04:17:00,
2013-04-21 21:22:00,71.2,24.2,29.94,NNW,338,2.5,2.5,17,0.00,,---,0.16,VWS V14.01,2013-04-22 04:22:00,
2013-04-21 21:27:00,71.1,24.1,29.94,NNW,338,2.5,2.5,17,0.00,,---,0.16,VWS V14.01,2013-04-22 04:27:00,
2013-04-21 21:32:00,71.1,24.1,29.94,NNW,338,2.5,2.5,17,0.00,,---,0.16,VWS V14.01,2013-04-22 04:32:00,
2013-04-21 21:37:00,70.9,23.9,29.94,NNW,338,2.5,2.9,17,0.00,,---,0.16,VWS V14.01,2013-04-22 04:37:00,
2013-04-21 21:42:00,71.1,24.1,29.94,NNW,338,2.7,2.7,17,0.00,,---,0.16,VWS V14.01,2013-04-22 04:42:00,
2013-04-21 21:47:00,70.9,23.9,29.94,NNW,338,2.5,2.7,17,0.00,,---,0.16,VWS V14.01,2013-04-22 04:47:00,
2013-04-21 21:52:00,70.7,23.8,29.94,NNW,338,1.1,2.0,17,0.00,,---,0.16,VWS V14.01,2013-04-22 04:52:00,
2013-04-21 21:57:00,70.5,23.6,29.94,NNW,338,3.6,3.6,17,0.00,,---,0.16,VWS V14.01,2013-04-22 04:57:00,
2013-04-21 22:02:00,70.2,23.4,29.94,NNW,338,2.7,2.7,17,0.00,,---,0.16,VWS V14.01,2013-04-22 05:02:00,
2013-04-21 22:07:00,69.8,23.1,29.94,NW,315,2.5,2.5,17,0.00,,---,0.16,VWS V14.01,2013-04-22 05:07:00,
2013-04-21 22:13:00,69.4,22.8,29.94,NW,315,2.5,2.5,17,0.00,,---,0.16,VWS V14.01,2013-04-22 05:13:00,
2013-04-21 22:18:00,69.4,22.8,29.94,NNW,338,2.9,2.9,17,0.00,,---,0.16,VWS V14.01,2013-04-22 05:18:00,
2013-04-21 22:23:00,69.3,22.6,29.94,NNW,338,2.0,2.0,17,0.00,,---,0.16,VWS V14.01,2013-04-22 05:23:00,
2013-04-21 22:28:00,68.9,22.3,29.94,NNW,338,1.1,1.1,17,0.00,,---,0.16,VWS V14.01,2013-04-22 05:28:00,
2013-04-21 22:33:00,68.9,22.3,29.94,NNW,338,1.3,1.3,17,0.00,,---,0.16,VWS V14.01,2013-04-22 05:33:00,
2013-04-21 22:38:00,68.4,21.9,29.94,NNW,338,1.6,1.6,17,0.00,,---,0.16,VWS V14.01,2013-04-22 05:38:00,
2013-04-21 22:43:00,67.6,21.3,29.94,NNW,338,0.9,0.9,17,0.00,,---,0.16,VWS V14.01,2013-04-22 05:43:00,
2013-04-21 22:48:00,66.9,20.7,29.94,NW,315,0.0,0.0,17,0.00,,---,0.16,VWS V14.01,2013-04-22 05:48:00,
2013-04-21 22:53:00,66.7,20.6,29.94,WSW,248,1.6,1.6,17,0.00,,---,0.16,VWS V14.01,2013-04-22 05:53:00,
2013-04-21 22:58:00,66.4,20.3,29.94,SSW,202,1.3,1.3,17,0.00,,---,0.16,VWS V14.01,2013-04-22 05:58:00,
2013-04-21 23:03:00,65.8,21.2,29.94,SW,225,0.0,0.0,18,0.00,,---,0.16,VWS V14.01,2013-04-22 06:03:00,
2013-04-21 23:08:00,65.5,20.9,29.94,SSE,158,0.0,0.0,18,0.00,,---,0.16,VWS V14.01,2013-04-22 06:08:00,
2013-04-21 23:13:00,65.1,20.6,29.94,South,180,0.0,0.0,18,0.00,,---,0.16,VWS V14.01,2013-04-22 06:13:00,
2013-04-21 23:18:00,64.4,20.0,29.94,SE,135,0.0,0.0,18,0.00,,---,0.16,VWS V14.01,2013-04-22 06:18:00,
2013-04-21 23:23:00,63.7,19.4,29.94,SE,135,0.0,0.0,18,0.00,,---,0.16,VWS V14.01,2013-04-22 06:23:00,
2013-04-21 23:28:00,63.3,19.1,29.94,SW,225,0.0,0.0,18,0.00,,---,0.16,VWS V14.01,2013-04-22 06:28:00,
2013-04-21 23:34:00,63.0,22.5,29.94,NW,315,1.3,1.6,21,0.00,,---,0.16,VWS V14.01,2013-04-22 06:34:00,
2013-04-21 23:39:00,63.1,22.6,29.94,NNW,338,2.0,2.0,21,0.00,,---,0.16,VWS V14.01,2013-04-22 06:39:00,
2013-04-21 23:44:00,63.0,22.5,29.94,ENE,68,0.0,0.0,21,0.00,,---,0.16,VWS V14.01,2013-04-22 06:44:00,
2013-04-21 23:49:00,63.0,22.5,29.94,NNW,338,2.0,2.0,21,0.00,,---,0.16,VWS V14.01,2013-04-22 06:49:00,
2013-04-21 23:54:00,63.0,22.5,29.94,NNW,338,3.4,3.4,21,0.00,,---,0.16,VWS V14.01,2013-04-22 06:54:00,
2013-04-21 23:59:00,63.3,22.8,29.94,NW,315,2.5,2.5,21,0.00,,---,0.16,VWS V14.01,2013-04-22 06:59:00,